Time;durP1;ratioP1;P1;durP2;ratioP2;P2;SDS_P1;SDS_P2;PMS_P1;PMS_P2;Temp;Humidity;BMP_temperature;BMP_pressure;BME280_temperature;BME280_humidity;BME280_pressure;Samples;Min_cycle;Max_cycle;Signal;HPM_P1;HPM_P2
2023/09/03 00:02:08;;;;;;;21.35;19.15;;;;;;;16.78;97.97;102284.75;3600503;39;20578;-66
2023/09/03 00:04:33;;;;;;;21.23;19.13;;;;;;;16.77;97.74;102291.13;3596764;39;20048;-67
2023/09/03 00:06:59;;;;;;;21.50;19.20;;;;;;;16.74;97.92;102285.84;3600880;39;20327;-66
2023/09/03 00:09:24;;;;;;;22.13;19.92;;;;;;;16.69;97.29;102294.31;3601366;39;20394;-66
2023/09/03 00:11:50;;;;;;;21.83;19.63;;;;;;;16.67;97.63;102292.66;3602790;39;20043;-66
2023/09/03 00:14:16;;;;;;;20.95;18.88;;;;;;;16.62;97.20;102284.81;3593869;39;20059;-65
2023/09/03 00:16:41;;;;;;;20.77;18.77;;;;;;;16.61;97.37;102290.34;3603494;39;20412;-66
2023/09/03 00:19:07;;;;;;;24.55;21.85;;;;;;;16.58;97.19;102291.41;3603473;39;20075;-66
2023/09/03 00:21:33;;;;;;;26.20;23.55;;;;;;;16.55;96.69;102291.59;3601699;39;20055;-65
2023/09/03 00:23:58;;;;;;;29.30;26.25;;;;;;;16.52;96.88;102285.50;3602431;39;20070;-67
2023/09/03 00:26:26;;;;;;;28.63;25.17;;;;;;;16.50;97.53;102288.31;3603117;39;20055;-66
2023/09/03 00:28:52;;;;;;;31.70;28.45;;;;;;;16.46;97.85;102290.34;3600741;39;20052;-66
2023/09/03 00:31:17;;;;;;;29.98;26.88;;;;;;;16.44;98.15;102295.00;3602413;39;20066;-66
2023/09/03 00:33:43;;;;;;;25.70;23.00;;;;;;;16.43;97.84;102300.53;3602498;39;20063;-66
2023/09/03 00:36:09;;;;;;;23.48;20.75;;;;;;;16.21;97.63;102266.59;3591211;39;20351;-65
2023/09/03 00:38:36;;;;;;;20.65;18.73;;;;;;;16.35;97.59;102300.13;3603864;39;20052;-67
2023/09/03 00:41:04;;;;;;;21.95;19.85;;;;;;;16.29;98.52;102295.09;3601154;39;20055;-66
2023/09/03 00:43:31;;;;;;;22.02;19.77;;;;;;;16.20;99.21;102286.53;3591554;39;20057;-65
2023/09/03 00:46:03;;;;;;;21.60;19.25;;;;;;;16.32;99.11;102312.06;3603175;39;20055;-67
2023/09/03 00:48:30;;;;;;;19.92;18.02;;;;;;;16.32;99.25;102311.19;3605944;39;20051;-65
2023/09/03 00:51:05;;;;;;;20.00;17.90;;;;;;;16.32;98.75;102311.19;3603815;39;20051;-66
2023/09/03 00:53:34;;;;;;;19.60;17.80;;;;;;;16.24;98.12;102306.25;3604359;39;20055;-65
2023/09/03 00:56:00;;;;;;;20.10;17.90;;;;;;;16.28;98.67;102315.06;3603504;39;20059;-66
2023/09/03 00:58:26;;;;;;;19.35;17.52;;;;;;;16.28;98.52;102310.50;3605093;39;20052;-67
2023/09/03 01:00:53;;;;;;;19.80;17.90;;;;;;;16.24;98.11;102309.81;3604458;39;20047;-66
2023/09/03 01:03:19;;;;;;;19.65;17.55;;;;;;;16.25;98.43;102310.69;3605904;39;20043;-66
2023/09/03 01:05:44;;;;;;;18.27;16.48;;;;;;;16.23;97.87;102312.63;3605221;39;20601;-67
2023/09/03 01:08:12;;;;;;;18.25;16.35;;;;;;;16.19;97.86;102311.94;3605120;39;20080;-67
2023/09/03 01:11:18;;;;;;;17.85;15.88;;;;;;;16.16;96.93;102327.53;3601982;39;20062;-66
2023/09/03 01:13:58;;;;;;;17.30;15.60;;;;;;;15.99;97.13;102320.44;3602142;39;20314;-66
2023/09/03 01:16:44;;;;;;;18.05;16.35;;;;;;;16.08;96.74;102332.56;3601684;39;20057;-66
2023/09/03 01:19:51;;;;;;;17.13;15.52;;;;;;;16.04;97.60;102323.72;3603592;39;20119;-66
2023/09/03 01:23:07;;;;;;;19.85;17.95;;;;;;;16.01;98.38;102322.06;3587047;39;20398;-68
2023/09/03 01:25:50;;;;;;;20.02;17.45;;;;;;;16.00;98.12;102317.63;3602791;39;20047;-65
2023/09/03 01:28:26;;;;;;;18.63;16.83;;;;;;;16.00;98.63;102316.75;3604320;39;20297;-66
2023/09/03 01:31:03;;;;;;;19.42;17.63;;;;;;;15.98;98.58;102319.56;3605845;39;20113;-65
2023/09/03 01:33:31;;;;;;;17.92;16.13;;;;;;;15.97;97.81;102323.22;3602353;39;20062;-66
2023/09/03 01:35:59;;;;;;;17.33;15.68;;;;;;;15.93;97.98;102308.13;3603397;39;20087;-66
2023/09/03 01:38:26;;;;;;;18.52;16.35;;;;;;;15.75;97.75;102285.69;3602283;39;20321;-67
2023/09/03 01:40:55;;;;;;;18.40;16.50;;;;;;;15.93;97.55;102316.25;3603196;39;20425;-66
2023/09/03 01:43:22;;;;;;;17.48;15.48;;;;;;;15.91;96.80;102318.19;3601881;39;20043;-65
2023/09/03 01:46:12;;;;;;;18.23;15.27;;;;;;;15.87;97.07;102305.78;3602111;39;20059;-66
2023/09/03 01:48:55;;;;;;;16.73;14.65;;;;;;;15.86;96.78;102311.28;3603306;39;20087;-67
2023/09/03 01:52:02;;;;;;;17.15;15.15;;;;;;;15.82;96.72;102318.72;3603737;39;20069;-67
2023/09/03 01:54:39;;;;;;;16.50;14.90;;;;;;;15.80;96.84;102314.38;3602136;39;20055;-67
2023/09/03 01:57:20;;;;;;;16.75;14.88;;;;;;;15.78;97.05;102311.75;3601861;39;20304;-67
2023/09/03 01:59:55;;;;;;;17.52;15.82;;;;;;;15.73;97.04;102312.03;3603956;39;20051;-66
2023/09/03 02:02:24;;;;;;;18.15;16.25;;;;;;;15.56;96.56;102285.88;3603796;39;20091;-67
2023/09/03 02:04:50;;;;;;;16.73;14.90;;;;;;;15.19;96.36;102226.69;3593005;39;20047;-65
2023/09/03 02:07:16;;;;;;;17.17;15.48;;;;;;;15.69;96.40;102320.44;3603964;39;20059;-66
2023/09/03 02:09:42;;;;;;;15.77;14.18;;;;;;;15.66;95.71;102320.59;3603940;39;20043;-66
2023/09/03 02:12:09;;;;;;;16.52;14.82;;;;;;;15.65;95.90;102326.97;3604653;39;20062;-66
2023/09/03 02:14:35;;;;;;;16.27;14.63;;;;;;;15.60;96.25;102321.81;3602909;39;20079;-66
2023/09/03 02:17:00;;;;;;;16.77;15.00;;;;;;;15.58;96.17;102331.91;3601219;39;20079;-66
2023/09/03 02:19:26;;;;;;;17.02;15.43;;;;;;;15.58;96.04;102350.00;3602836;39;20063;-67
2023/09/03 02:21:52;;;;;;;16.88;15.13;;;;;;;15.55;96.29;102349.19;3602528;39;20050;-65
2023/09/03 02:24:18;;;;;;;17.60;15.93;;;;;;;15.53;96.32;102347.53;3592991;39;20053;-66
2023/09/03 02:26:46;;;;;;;17.60;15.80;;;;;;;15.50;96.81;102351.28;3604587;39;20127;-65
2023/09/03 02:29:12;;;;;;;16.00;14.45;;;;;;;15.47;96.88;102359.59;3602088;39;20126;-65
2023/09/03 02:31:38;;;;;;;18.98;15.77;;;;;;;15.46;96.72;102363.28;3602999;39;20057;-65
2023/09/03 02:34:06;;;;;;;16.70;15.07;;;;;;;15.42;97.12;102359.00;3601268;39;20364;-67
2023/09/03 02:36:34;;;;;;;17.85;15.95;;;;;;;15.41;96.52;102361.78;3603750;39;20049;-66
2023/09/03 02:39:03;;;;;;;16.30;14.70;;;;;;;15.29;96.85;102345.31;3602128;39;20062;-67
2023/09/03 02:41:32;;;;;;;17.65;15.85;;;;;;;15.18;96.66;102328.78;3601929;39;20075;-66
2023/09/03 02:44:00;;;;;;;17.98;15.82;;;;;;;15.39;96.36;102367.31;3592413;39;20047;-67
2023/09/03 02:46:28;;;;;;;16.50;14.70;;;;;;;15.36;96.93;102359.38;3603304;39;20052;-66
2023/09/03 02:48:54;;;;;;;17.15;15.45;;;;;;;15.37;96.23;102349.41;3604330;39;20055;-66
2023/09/03 02:51:20;;;;;;;17.38;15.60;;;;;;;15.35;96.55;102341.38;3601543;39;20123;-66
2023/09/03 02:53:47;;;;;;;18.23;16.27;;;;;;;15.35;96.46;102335.06;3602072;39;20062;-67
2023/09/03 02:56:14;;;;;;;19.40;17.33;;;;;;;15.33;97.11;102338.72;3601840;39;20124;-67
2023/09/03 02:58:41;;;;;;;21.63;19.42;;;;;;;15.33;97.26;102337.88;3603796;39;20091;-66
2023/09/03 03:01:14;;;;;;;20.77;18.65;;;;;;;15.24;96.58;102335.69;3604008;39;20070;-66
2023/09/03 03:03:41;;;;;;;21.08;18.85;;;;;;;15.28;97.88;102339.94;3604633;39;20058;-67
2023/09/03 03:06:06;;;;;;;22.02;17.90;;;;;;;15.08;97.58;102311.31;3608110;39;20073;-66
2023/09/03 03:08:33;;;;;;;20.63;18.27;;;;;;;15.28;97.62;102348.06;3603936;39;20059;-66
2023/09/03 03:11:09;;;;;;;20.58;18.65;;;;;;;15.24;97.62;102341.97;3603226;39;20091;-66
2023/09/03 03:13:38;;;;;;;21.30;18.75;;;;;;;15.24;97.30;102352.81;3603359;39;20066;-66
2023/09/03 03:16:06;;;;;;;19.08;17.10;;;;;;;15.04;97.64;102328.69;3605280;39;20055;-67
2023/09/03 03:18:36;;;;;;;19.80;17.20;;;;;;;15.19;97.75;102364.84;3603987;39;20266;-65
2023/09/03 03:21:05;;;;;;;19.10;17.08;;;;;;;15.18;98.45;102360.41;3604978;39;20064;-66
2023/09/03 03:23:33;;;;;;;18.40;16.70;;;;;;;15.16;98.21;102352.38;3602235;39;20360;-65
2023/09/03 03:25:59;;;;;;;19.30;17.17;;;;;;;15.16;98.58;102338.84;3602851;39;20839;-66
2023/09/03 03:28:25;;;;;;;20.30;18.30;;;;;;;15.18;98.59;102320.66;3604551;39;21764;-66
2023/09/03 03:30:50;;;;;;;20.70;18.58;;;;;;;15.18;97.90;102311.66;3603828;39;20065;-66
2023/09/03 03:33:16;;;;;;;21.38;19.17;;;;;;;15.17;98.12;102315.34;3604031;39;20074;-66
2023/09/03 03:35:42;;;;;;;21.23;19.05;;;;;;;15.17;99.38;102315.34;3601646;39;20058;-66
2023/09/03 03:38:07;;;;;;;20.15;18.13;;;;;;;15.16;99.28;102310.84;3602900;39;20051;-66
2023/09/03 03:40:33;;;;;;;20.80;18.25;;;;;;;15.17;99.67;102320.75;3600639;39;20047;-66
2023/09/03 03:42:58;;;;;;;19.77;17.77;;;;;;;15.18;99.42;102322.50;3593480;39;20060;-66
2023/09/03 03:45:24;;;;;;;20.60;18.60;;;;;;;15.18;98.48;102333.31;3601786;39;20433;-66
2023/09/03 03:47:50;;;;;;;21.83;19.02;;;;;;;15.17;98.05;102353.25;3604220;39;20043;-66
2023/09/03 03:50:15;;;;;;;23.95;19.92;;;;;;;15.14;97.93;102358.84;3602969;39;20090;-66
2023/09/03 03:52:41;;;;;;;21.33;19.20;;;;;;;15.11;98.64;102353.59;3602299;39;20062;-65
2023/09/03 03:55:07;;;;;;;21.92;19.75;;;;;;;15.12;98.93;102358.91;3603481;39;20063;-65
2023/09/03 03:57:32;;;;;;;21.45;19.25;;;;;;;15.12;98.98;102367.03;3601838;39;20266;-66
2023/09/03 03:59:58;;;;;;;22.15;19.75;;;;;;;14.96;98.51;102334.53;3600525;39;20051;-66
2023/09/03 04:02:24;;;;;;;24.50;18.83;;;;;;;15.03;98.37;102341.38;3604331;39;20059;-67
2023/09/03 04:04:53;;;;;;;21.42;19.10;;;;;;;15.07;98.18;102342.06;3605745;39;20062;-65
2023/09/03 04:07:19;;;;;;;20.38;18.38;;;;;;;15.08;98.34;102354.63;3602660;39;20124;-64
2023/09/03 04:09:45;;;;;;;20.60;18.10;;;;;;;15.06;97.79;102371.00;3602179;39;20048;-66
2023/09/03 04:12:11;;;;;;;21.08;18.98;;;;;;;15.04;97.69;102372.03;3603757;39;20406;-66
2023/09/03 04:14:37;;;;;;;20.58;18.65;;;;;;;15.01;99.19;102370.38;3602784;39;20090;-66
2023/09/03 04:17:04;;;;;;;20.98;18.55;;;;;;;14.90;99.23;102356.53;3602507;39;20047;-64
2023/09/03 04:19:29;;;;;;;20.65;18.63;;;;;;;14.85;98.77;102347.81;3607673;39;20094;-66
2023/09/03 04:21:55;;;;;;;21.50;19.38;;;;;;;14.98;98.89;102375.94;3607608;39;20638;-66
2023/09/03 04:24:20;;;;;;;20.45;18.23;;;;;;;15.00;99.26;102379.47;3602467;39;20136;-66
2023/09/03 04:26:46;;;;;;;19.58;17.67;;;;;;;15.01;98.33;102385.75;3606837;39;20382;-66
2023/09/03 04:29:12;;;;;;;19.17;17.27;;;;;;;15.01;98.45;102380.31;3605272;39;20059;-66
2023/09/03 04:31:39;;;;;;;20.15;17.75;;;;;;;15.03;97.85;102386.50;3604826;39;20055;-67
2023/09/03 04:34:06;;;;;;;19.17;17.17;;;;;;;15.03;97.89;102378.38;3602679;39;20065;-66
2023/09/03 04:36:33;;;;;;;20.00;18.00;;;;;;;15.03;97.72;102384.72;3608048;39;20055;-67
2023/09/03 04:38:59;;;;;;;18.65;16.85;;;;;;;15.03;97.22;102387.41;3595336;39;20074;-65
2023/09/03 04:41:25;;;;;;;19.33;17.42;;;;;;;15.03;97.63;102395.53;3603707;39;20051;-65
2023/09/03 04:44:09;;;;;;;19.30;17.40;;;;;;;15.04;97.55;102391.84;3604395;39;20055;-66
2023/09/03 04:46:35;;;;;;;19.83;17.83;;;;;;;15.07;97.78;102399.81;3604990;39;20059;-65
2023/09/03 04:49:01;;;;;;;18.75;16.83;;;;;;;15.09;97.70;102400.59;3604648;39;20081;-66
2023/09/03 04:51:26;;;;;;;19.05;17.15;;;;;;;15.05;97.19;102388.19;3604266;39;20066;-66
2023/09/03 04:53:52;;;;;;;19.88;17.98;;;;;;;15.12;97.10;102398.69;3604755;39;20047;-66
2023/09/03 04:56:18;;;;;;;19.10;17.20;;;;;;;15.14;97.18;102402.19;3594607;39;20341;-66
2023/09/03 04:58:43;;;;;;;20.35;18.05;;;;;;;15.13;96.80;102408.53;3603365;39;20316;-66
2023/09/03 05:01:17;;;;;;;19.63;17.67;;;;;;;15.13;97.21;102405.84;3606231;39;20345;-65
2023/09/03 05:03:44;;;;;;;19.95;18.02;;;;;;;15.14;96.97;102415.72;3604337;39;20061;-67
2023/09/03 05:06:18;;;;;;;20.67;18.70;;;;;;;15.13;97.57;102422.97;3604778;39;20043;-65
2023/09/03 05:08:45;;;;;;;20.08;18.05;;;;;;;15.13;98.19;102416.66;3603083;39;20125;-64
2023/09/03 05:11:12;;;;;;;20.35;18.13;;;;;;;15.13;98.42;102422.09;3606289;39;20059;-65
2023/09/03 05:13:41;;;;;;;20.17;18.25;;;;;;;15.11;98.13;102415.91;3604519;39;20043;-65
2023/09/03 05:16:07;;;;;;;20.63;18.60;;;;;;;15.11;98.93;102418.59;3603197;39;20405;-65
2023/09/03 05:18:34;;;;;;;20.35;18.35;;;;;;;15.14;98.36;102430.13;3599832;39;20058;-66
2023/09/03 05:21:10;;;;;;;21.98;19.77;;;;;;;14.91;98.24;102384.50;3608510;39;20063;-64
2023/09/03 05:23:37;;;;;;;22.48;20.17;;;;;;;15.02;98.02;102404.59;3602427;39;20081;-65
2023/09/03 05:26:03;;;;;;;22.85;20.75;;;;;;;15.20;98.59;102424.38;3605954;39;20048;-65
2023/09/03 05:28:29;;;;;;;22.48;20.25;;;;;;;15.20;98.84;102429.81;3606071;39;20366;-65
2023/09/03 05:30:54;;;;;;;23.48;21.00;;;;;;;15.22;99.27;102443.25;3603945;39;20043;-65
2023/09/03 05:33:20;;;;;;;22.80;20.55;;;;;;;15.22;99.30;102445.97;3603473;39;20119;-65
2023/09/03 05:35:46;;;;;;;21.90;19.70;;;;;;;15.16;99.24;102428.22;3607466;39;20059;-65
2023/09/03 05:38:11;;;;;;;24.50;22.00;;;;;;;15.25;99.77;102443.06;3605282;39;20066;-65
2023/09/03 05:40:37;;;;;;;22.67;20.33;;;;;;;15.29;98.80;102441.97;3607856;39;20058;-64
2023/09/03 05:43:03;;;;;;;23.30;21.00;;;;;;;15.32;98.79;102439.09;3602330;39;20096;-65
2023/09/03 05:45:28;;;;;;;24.13;21.60;;;;;;;15.35;99.53;102438.91;3603991;39;20429;-64
2023/09/03 05:47:54;;;;;;;24.30;21.90;;;;;;;15.40;99.08;102433.22;3607517;39;20131;-64
2023/09/03 05:50:20;;;;;;;24.50;22.15;;;;;;;15.43;99.31;102441.19;3610609;39;20054;-65
2023/09/03 05:52:45;;;;;;;24.40;21.98;;;;;;;15.44;98.85;102443.78;3601651;39;20051;-65
2023/09/03 05:55:11;;;;;;;25.08;22.80;;;;;;;15.44;98.54;102435.66;3594597;39;20367;-66
2023/09/03 05:57:37;;;;;;;26.40;23.77;;;;;;;15.48;98.46;102445.38;3603737;39;20436;-64
2023/09/03 06:00:05;;;;;;;25.88;23.33;;;;;;;15.51;98.53;102453.34;3605407;39;20109;-65
2023/09/03 06:02:33;;;;;;;26.00;23.30;;;;;;;15.55;98.39;102456.75;3604969;39;20059;-65
2023/09/03 06:04:59;;;;;;;26.90;24.40;;;;;;;15.58;97.35;102461.13;3608666;39;20367;-65
2023/09/03 06:07:25;;;;;;;25.50;23.00;;;;;;;15.60;98.16;102470.03;3601764;39;20059;-65
2023/09/03 06:09:50;;;;;;;25.10;22.50;;;;;;;15.62;97.68;102470.84;3605005;39;20322;-65
2023/09/03 06:12:16;;;;;;;25.48;22.98;;;;;;;15.64;97.94;102467.06;3605429;39;20073;-65
2023/09/03 06:14:41;;;;;;;26.85;24.25;;;;;;;15.69;97.42;102480.38;3608401;39;20058;-66
2023/09/03 06:17:07;;;;;;;25.90;23.13;;;;;;;15.72;96.60;102480.22;3606428;39;20102;-66
2023/09/03 06:19:33;;;;;;;25.13;22.75;;;;;;;15.73;96.81;102480.16;3604863;39;20068;-66
2023/09/03 06:21:59;;;;;;;25.65;23.05;;;;;;;15.75;96.19;102480.03;3605723;39;20093;-65
2023/09/03 06:24:24;;;;;;;24.40;22.10;;;;;;;15.76;96.32;102479.06;3602294;39;20271;-65
2023/09/03 06:26:50;;;;;;;26.92;24.10;;;;;;;15.65;97.46;102467.94;3603102;39;20059;-66
2023/09/03 06:29:15;;;;;;;27.20;24.42;;;;;;;15.87;97.54;102501.03;3593787;39;20047;-65
2023/09/03 06:31:41;;;;;;;27.73;24.83;;;;;;;15.92;96.35;102504.38;3604841;39;20054;-65
2023/09/03 06:34:07;;;;;;;26.35;23.85;;;;;;;15.96;96.76;102513.19;3603712;39;20071;-65
2023/09/03 06:36:32;;;;;;;27.75;24.98;;;;;;;16.01;96.43;102519.22;3602209;39;20349;-65
2023/09/03 06:38:58;;;;;;;26.27;23.75;;;;;;;16.02;95.48;102521.84;3602666;39;20406;-65
2023/09/03 06:41:24;;;;;;;28.25;25.58;;;;;;;16.02;95.53;102521.00;3604814;39;20127;-66
2023/09/03 06:43:50;;;;;;;28.42;25.88;;;;;;;15.52;95.77;102427.97;3601043;39;20122;-65
2023/09/03 06:46:15;;;;;;;28.05;25.35;;;;;;;16.10;95.18;102529.53;3604654;39;20369;-66
2023/09/03 06:48:41;;;;;;;26.55;24.15;;;;;;;16.09;94.39;102537.78;3603752;39;20067;-65
2023/09/03 06:51:07;;;;;;;27.55;24.95;;;;;;;16.01;94.49;102522.81;3601133;39;20051;-65
2023/09/03 06:53:32;;;;;;;28.42;25.73;;;;;;;16.12;94.85;102537.59;3602878;39;20098;-65
2023/09/03 06:55:58;;;;;;;28.02;25.33;;;;;;;16.14;94.58;102535.66;3601839;39;20066;-65
2023/09/03 06:58:24;;;;;;;27.83;25.15;;;;;;;16.18;96.39;102531.81;3603616;39;20063;-65
2023/09/03 07:00:50;;;;;;;28.08;25.38;;;;;;;16.22;95.17;102533.38;3603516;39;20184;-65
2023/09/03 07:03:16;;;;;;;27.40;24.80;;;;;;;16.26;94.80;102540.38;3602625;39;20114;-65
2023/09/03 07:05:41;;;;;;;26.90;24.10;;;;;;;16.30;94.66;102536.53;3600979;39;20668;-67
2023/09/03 07:08:07;;;;;;;27.52;25.00;;;;;;;16.32;93.52;102537.31;3600190;39;20063;-68
2023/09/03 07:10:33;;;;;;;27.45;24.75;;;;;;;16.44;95.06;102538.44;3604353;39;20055;-68
2023/09/03 07:12:59;;;;;;;27.50;24.60;;;;;;;16.53;94.35;102539.72;3601535;39;20062;-67
2023/09/03 07:15:26;;;;;;;28.17;25.45;;;;;;;16.41;94.92;102506.03;3600841;39;20058;-68
2023/09/03 07:17:52;;;;;;;28.38;25.67;;;;;;;16.76;94.22;102550.09;3602579;39;20051;-67
2023/09/03 07:20:17;;;;;;;27.25;24.75;;;;;;;16.87;93.17;102553.06;3601548;39;20065;-67
2023/09/03 07:22:43;;;;;;;27.20;24.42;;;;;;;17.03;94.71;102552.09;3602173;39;20055;-66
2023/09/03 07:25:09;;;;;;;27.27;24.77;;;;;;;17.17;94.16;102552.13;3601963;39;20047;-67
2023/09/03 07:27:38;;;;;;;24.75;22.48;;;;;;;17.29;91.96;102559.53;3603108;39;20067;-67
2023/09/03 07:30:07;;;;;;;26.73;24.13;;;;;;;17.48;93.06;102559.25;3601315;39;20082;-66
2023/09/03 07:32:33;;;;;;;25.75;23.25;;;;;;;17.62;92.48;102559.22;3591286;39;20069;-67
2023/09/03 07:34:59;;;;;;;24.27;21.73;;;;;;;17.74;89.69;102543.09;3599071;39;20090;-68
2023/09/03 07:37:24;;;;;;;24.10;21.88;;;;;;;17.95;89.42;102565.31;3600102;39;20433;-66
2023/09/03 07:39:50;;;;;;;24.20;21.65;;;;;;;17.99;88.87;102539.69;3603751;39;20074;-66
2023/09/03 07:42:16;;;;;;;23.65;21.33;;;;;;;18.34;89.16;102570.00;3592241;39;20439;-66
2023/09/03 07:44:41;;;;;;;24.33;21.83;;;;;;;18.49;88.65;102562.63;3591575;39;20051;-67
2023/09/03 07:47:07;;;;;;;22.42;20.23;;;;;;;18.71;88.57;102572.94;3601814;39;20059;-66
2023/09/03 07:49:32;;;;;;;23.20;21.00;;;;;;;18.66;87.40;102540.56;3602292;39;20062;-69
2023/09/03 07:51:58;;;;;;;21.83;19.83;;;;;;;18.99;84.11;102591.00;3600475;39;20071;-67
2023/09/03 07:54:24;;;;;;;21.80;19.83;;;;;;;19.14;85.61;102584.50;3602616;39;20062;-68
2023/09/03 07:56:54;;;;;;;22.88;20.75;;;;;;;19.31;84.33;102582.44;3605662;39;20109;-69
2023/09/03 07:59:20;;;;;;;21.33;19.23;;;;;;;19.50;83.81;102582.88;3602923;39;20048;-68
2023/09/03 08:01:46;;;;;;;20.75;18.75;;;;;;;19.62;80.40;102576.53;3596032;39;20065;-67
2023/09/03 08:04:12;;;;;;;21.38;19.38;;;;;;;19.79;81.10;102577.19;3602155;39;20066;-67
2023/09/03 08:06:38;;;;;;;19.77;17.95;;;;;;;19.88;80.08;102580.09;3605659;39;20055;-66
2023/09/03 08:09:04;;;;;;;19.48;17.67;;;;;;;20.09;80.15;102574.94;3605275;39;20427;-66
2023/09/03 08:11:30;;;;;;;19.25;17.35;;;;;;;20.15;76.39;102590.88;3601315;39;20299;-66
2023/09/03 08:14:00;;;;;;;19.92;18.08;;;;;;;20.27;78.78;102585.47;3596061;39;20073;-68
2023/09/03 08:16:26;;;;;;;19.95;18.00;;;;;;;20.39;78.08;102576.34;3602473;39;20051;-67
2023/09/03 08:18:52;;;;;;;19.13;17.23;;;;;;;20.49;76.53;102576.50;3605824;39;20089;-67
2023/09/03 08:21:18;;;;;;;19.40;17.60;;;;;;;20.74;77.91;102589.19;3603278;39;20374;-67
2023/09/03 08:23:43;;;;;;;18.55;16.83;;;;;;;20.92;74.74;102576.84;3603654;39;20058;-67
2023/09/03 08:26:09;;;;;;;17.88;16.08;;;;;;;21.14;74.47;102572.44;3603054;39;20062;-67
2023/09/03 08:28:35;;;;;;;16.63;15.02;;;;;;;21.28;73.06;102572.19;3606168;39;20139;-68
2023/09/03 08:31:01;;;;;;;16.25;14.50;;;;;;;21.36;73.65;102560.69;3602931;39;20055;-67
2023/09/03 08:33:26;;;;;;;15.27;13.82;;;;;;;21.50;71.70;102574.13;3603090;39;20062;-67
2023/09/03 08:35:52;;;;;;;14.57;13.18;;;;;;;21.63;69.88;102582.22;3604274;39;20059;-66
2023/09/03 08:38:18;;;;;;;14.60;13.20;;;;;;;21.56;69.43;102546.25;3597763;39;20063;-67
2023/09/03 08:40:44;;;;;;;14.55;13.02;;;;;;;21.88;70.82;102581.94;3602363;39;20070;-66
2023/09/03 08:43:14;;;;;;;14.43;12.93;;;;;;;22.01;70.16;102590.91;3602964;39;20051;-67
2023/09/03 08:45:56;;;;;;;13.85;12.38;;;;;;;22.15;69.89;102581.56;3604460;39;20047;-67
2023/09/03 08:48:22;;;;;;;13.88;12.48;;;;;;;22.23;67.91;102580.94;3592280;39;20063;-65
2023/09/03 08:50:48;;;;;;;12.40;11.15;;;;;;;22.21;65.35;102585.69;3604048;39;20055;-65
2023/09/03 08:53:16;;;;;;;12.23;11.13;;;;;;;22.37;68.05;102586.13;3605190;39;20124;-66
2023/09/03 08:55:43;;;;;;;13.13;11.23;;;;;;;22.22;66.81;102524.41;3608300;39;20055;-67
2023/09/03 08:58:09;;;;;;;11.73;10.68;;;;;;;22.75;66.09;102590.25;3605828;39;20047;-67
2023/09/03 09:00:36;;;;;;;12.05;10.02;;;;;;;22.89;64.10;102587.16;3603495;39;20368;-67
2023/09/03 09:03:11;;;;;;;11.27;10.18;;;;;;;23.04;64.99;102595.13;3602836;39;20379;-67
2023/09/03 09:05:40;;;;;;;13.07;9.40;;;;;;;23.22;64.01;102585.28;3605299;39;20278;-66
2023/09/03 09:08:06;;;;;;;10.48;8.68;;;;;;;23.34;63.23;102586.94;3607263;39;20275;-66
2023/09/03 09:10:38;;;;;;;9.75;8.75;;;;;;;23.48;63.82;102590.34;3603559;39;20128;-67
2023/09/03 09:13:07;;;;;;;9.20;8.38;;;;;;;23.59;62.53;102602.06;3601334;39;20051;-66
2023/09/03 09:15:42;;;;;;;9.57;8.55;;;;;;;23.68;60.66;102594.91;3603636;39;20067;-67
2023/09/03 09:18:10;;;;;;;9.60;8.60;;;;;;;23.64;61.10;102599.81;3604593;39;20066;-65
2023/09/03 09:20:40;;;;;;;9.50;8.60;;;;;;;23.85;61.36;102586.06;3601815;39;20390;-67
2023/09/03 09:23:08;;;;;;;10.07;9.07;;;;;;;23.95;60.14;102588.84;3604774;39;20052;-67
2023/09/03 09:25:38;;;;;;;10.63;7.72;;;;;;;24.06;60.70;102593.34;3600881;39;20063;-66
2023/09/03 09:28:11;;;;;;;9.35;8.30;;;;;;;24.12;60.48;102581.78;3604471;39;20321;-67
2023/09/03 09:30:53;;;;;;;8.50;7.65;;;;;;;24.24;59.63;102591.66;3604453;39;20420;-66
2023/09/03 09:33:19;;;;;;;7.65;6.95;;;;;;;24.38;59.10;102592.25;3603158;39;20053;-66
2023/09/03 09:35:44;;;;;;;8.23;7.20;;;;;;;24.46;58.76;102595.22;3603899;39;20573;-67
2023/09/03 09:38:10;;;;;;;7.00;6.32;;;;;;;24.68;58.51;102583.06;3604238;39;20074;-66
2023/09/03 09:40:36;;;;;;;7.30;6.47;;;;;;;24.86;58.08;102580.44;3601199;39;20270;-65
2023/09/03 09:43:06;;;;;;;5.85;5.35;;;;;;;24.85;55.98;102579.56;3602900;39;20046;-67
2023/09/03 09:45:43;;;;;;;7.32;6.40;;;;;;;24.80;55.38;102581.88;3601312;39;20069;-67
2023/09/03 09:48:10;;;;;;;6.97;6.28;;;;;;;24.77;55.76;102577.56;3602969;39;20472;-66
2023/09/03 09:50:42;;;;;;;9.00;7.32;;;;;;;24.64;55.22;102557.72;3602283;39;20073;-67
2023/09/03 09:53:27;;;;;;;8.25;6.25;;;;;;;24.63;56.14;102553.22;3600758;39;20099;-66
2023/09/03 09:56:09;;;;;;;7.13;6.03;;;;;;;24.74;58.04;102569.59;3602606;39;20123;-66
2023/09/03 09:58:36;;;;;;;6.00;5.35;;;;;;;24.78;57.90;102561.94;3603737;39;20063;-66
2023/09/03 10:01:02;;;;;;;7.47;5.60;;;;;;;24.74;57.75;102564.09;3602248;39;20694;-66
2023/09/03 10:03:45;;;;;;;8.00;6.28;;;;;;;24.82;58.10;102563.34;3600904;39;20067;-67
2023/09/03 10:06:20;;;;;;;6.53;5.85;;;;;;;24.78;57.11;102543.53;3601620;39;20143;-66
2023/09/03 10:08:48;;;;;;;7.28;6.38;;;;;;;24.93;57.68;102565.97;3593547;39;20111;-66
2023/09/03 10:11:15;;;;;;;6.60;6.00;;;;;;;24.95;55.22;102565.81;3606387;39;20061;-67
2023/09/03 10:13:41;;;;;;;6.35;5.75;;;;;;;25.04;56.05;102564.06;3601195;39;20481;-67
2023/09/03 10:16:09;;;;;;;8.68;5.90;;;;;;;25.14;55.78;102567.69;3604726;39;20054;-67
2023/09/03 10:19:01;;;;;;;6.15;5.07;;;;;;;25.06;52.89;102565.66;3602120;39;20060;-67
2023/09/03 10:21:30;;;;;;;5.15;4.65;;;;;;;25.21;53.66;102558.72;3601528;39;20371;-67
2023/09/03 10:24:00;;;;;;;5.25;4.75;;;;;;;25.40;52.73;102567.91;3601301;39;20067;-66
2023/09/03 10:26:38;;;;;;;5.75;4.85;;;;;;;25.49;52.63;102572.50;3605199;39;20047;-66
2023/09/03 10:29:11;;;;;;;7.70;5.53;;;;;;;25.36;51.35;102547.19;3605028;39;20386;-68
2023/09/03 10:31:41;;;;;;;5.53;5.03;;;;;;;25.64;52.70;102572.91;3603699;39;20051;-66
2023/09/03 10:34:14;;;;;;;8.43;5.55;;;;;;;25.83;52.79;102563.72;3604555;39;20103;-67
2023/09/03 10:37:11;;;;;;;6.85;5.95;;;;;;;25.89;50.41;102575.00;3602917;39;20063;-67
2023/09/03 10:39:40;;;;;;;7.43;4.97;;;;;;;26.01;51.31;102570.16;3604169;39;20047;-67
2023/09/03 10:42:15;;;;;;;5.50;5.00;;;;;;;26.11;50.98;102570.09;3603389;39;20090;-67
2023/09/03 10:44:42;;;;;;;5.80;4.53;;;;;;;26.20;52.55;102566.41;3602048;39;20095;-67
2023/09/03 10:47:10;;;;;;;6.30;5.30;;;;;;;26.28;51.12;102560.97;3601518;39;20083;-67
2023/09/03 10:49:48;;;;;;;5.43;4.90;;;;;;;26.39;48.92;102570.91;3594041;39;20297;-66
2023/09/03 10:52:27;;;;;;;7.05;4.20;;;;;;;26.49;52.04;102574.50;3604472;39;20046;-66
2023/09/03 10:55:21;;;;;;;5.65;4.68;;;;;;;26.68;48.20;102570.72;3605999;39;20063;-66
2023/09/03 10:57:47;;;;;;;4.93;4.43;;;;;;;26.74;51.46;102574.72;3598559;39;20044;-67
2023/09/03 11:00:23;;;;;;;4.75;4.25;;;;;;;26.81;50.43;102576.69;3603001;39;20051;-66
2023/09/03 11:02:49;;;;;;;5.00;4.00;;;;;;;26.93;49.60;102568.16;3602519;39;20051;-67
2023/09/03 11:05:26;;;;;;;4.78;3.80;;;;;;;26.95;48.11;102572.47;3601589;39;20043;-67
2023/09/03 11:08:30;;;;;;;4.63;4.20;;;;;;;26.99;46.80;102571.16;3604890;39;20057;-67
2023/09/03 11:10:57;;;;;;;3.78;3.42;;;;;;;26.97;46.39;102570.44;3599770;39;20053;-65
2023/09/03 11:13:23;;;;;;;4.88;3.50;;;;;;;27.16;47.41;102574.06;3601195;39;20063;-66
2023/09/03 11:15:57;;;;;;;3.50;3.20;;;;;;;27.39;45.58;102571.63;3606329;39;20382;-66
2023/09/03 11:18:27;;;;;;;3.80;3.20;;;;;;;27.33;46.28;102570.38;3603104;39;20050;-65
2023/09/03 11:20:57;;;;;;;3.03;2.70;;;;;;;27.09;47.39;102513.94;3602577;39;20044;-67